Time;durP1;ratioP1;P1;durP2;ratioP2;P2;SDS_P1;SDS_P2;PMS_P1;PMS_P2;Temp;Humidity;BMP_temperature;BMP_pressure;BME280_temperature;BME280_humidity;BME280_pressure;Samples;Min_cycle;Max_cycle;Signal;HPM_P1;HPM_P2
2024/04/02 00:01:09;;;;;;;22.00;6.20;;;;;;;14.07;77.19;99189.25;104773;1257;138427;-63
2024/04/02 00:03:51;;;;;;;19.70;4.90;;;;;;;14.08;77.27;99189.59;104764;1254;77967;-64
2024/04/02 00:06:17;;;;;;;12.80;3.90;;;;;;;14.07;77.35;99198.07;104894;1257;144823;-63
2024/04/02 00:08:44;;;;;;;8.80;3.30;;;;;;;14.08;77.37;99200.90;105093;1254;72468;-63
2024/04/02 00:11:10;;;;;;;30.20;9.40;;;;;;;14.06;77.32;99201.44;104839;1253;138690;-64
2024/04/02 00:13:37;;;;;;;12.50;3.50;;;;;;;14.05;77.45;99206.74;104901;1254;62505;-64
2024/04/02 00:16:04;;;;;;;14.60;3.60;;;;;;;14.03;77.48;99213.64;105051;1256;75266;-64
2024/04/02 00:18:31;;;;;;;10.10;3.60;;;;;;;14.03;77.53;99218.06;104637;1254;138714;-64
2024/04/02 00:21:01;;;;;;;15.00;3.40;;;;;;;14.03;77.67;99216.65;104921;1254;70713;-64
2024/04/02 00:23:28;;;;;;;13.80;3.40;;;;;;;14.04;77.63;99215.59;108746;1253;138755;-63
2024/04/02 00:26:01;;;;;;;19.50;3.90;;;;;;;14.05;77.56;99215.91;106120;1253;62163;-64
2024/04/02 00:28:28;;;;;;;;;;;;;;;14.06;77.57;99218.90;104797;1257;76572;-63
2024/04/02 00:31:02;;;;;;;11.20;4.00;;;;;;;14.08;77.61;99224.70;104716;1254;124937;-63
2024/04/02 00:33:28;;;;;;;11.80;3.50;;;;;;;14.10;77.66;99233.66;104986;1254;73421;-63
2024/04/02 00:36:02;;;;;;;15.10;4.00;;;;;;;14.12;77.67;99231.52;104777;1253;139229;-63
2024/04/02 00:38:29;;;;;;;;;;;;;;;14.14;77.78;99232.38;105042;1254;61971;-63
2024/04/02 00:40:56;;;;;;;19.70;4.50;;;;;;;14.14;77.88;99227.41;104903;1257;125199;-62
2024/04/02 00:43:23;;;;;;;20.30;4.20;;;;;;;14.14;77.94;99232.20;108874;1253;66945;-63
2024/04/02 00:45:50;;;;;;;19.00;4.90;;;;;;;14.14;78.04;99234.48;108620;1254;74556;-64
2024/04/02 00:48:17;;;;;;;18.70;5.20;;;;;;;14.14;78.13;99233.77;108604;1254;139308;-63
2024/04/02 00:50:44;;;;;;;17.50;5.60;;;;;;;14.13;78.21;99233.80;108984;1253;59832;-63
2024/04/02 00:53:11;;;;;;;20.60;5.60;;;;;;;14.13;78.32;99236.98;109028;1253;139315;-63
2024/04/02 00:55:38;;;;;;;18.00;5.40;;;;;;;14.13;78.36;99237.85;109069;1253;67130;-63
2024/04/02 00:58:05;;;;;;;25.20;6.40;;;;;;;14.13;78.38;99238.39;109212;1253;71470;-64
2024/04/02 01:00:35;;;;;;;15.70;6.20;;;;;;;14.12;78.39;99238.73;109116;1254;138790;-64
2024/04/02 01:03:03;;;;;;;21.00;6.40;;;;;;;14.11;78.53;99239.30;109109;1254;60400;-64
2024/04/02 01:05:31;;;;;;;28.50;6.20;;;;;;;14.12;78.61;99243.69;109038;1254;139318;-65
2024/04/02 01:07:58;;;;;;;20.50;6.10;;;;;;;14.12;78.74;99242.81;108797;1254;65805;-64
2024/04/02 01:10:25;;;;;;;22.70;6.20;;;;;;;14.12;78.73;99241.23;107563;1259;71493;-64
2024/04/02 01:12:52;;;;;;;20.90;7.00;;;;;;;14.12;78.83;99236.63;104635;1254;139329;-63
2024/04/02 01:15:22;;;;;;;19.20;6.10;;;;;;;14.10;78.85;99232.42;104824;1257;62048;-64
2024/04/02 01:17:49;;;;;;;16.00;5.70;;;;;;;14.08;79.05;99226.98;104866;1254;138518;-64
2024/04/02 01:20:15;;;;;;;18.80;6.20;;;;;;;14.05;79.06;99225.27;105040;1257;62034;-63
2024/04/02 01:22:42;;;;;;;26.30;6.30;;;;;;;14.01;79.12;99219.85;104762;1259;73137;-63
2024/04/02 01:25:09;;;;;;;18.70;6.50;;;;;;;13.97;79.12;99217.79;104800;1257;138341;-64
2024/04/02 01:27:35;;;;;;;18.20;6.30;;;;;;;13.94;79.15;99213.42;104861;1257;64679;-64
2024/04/02 01:30:03;;;;;;;23.00;6.00;;;;;;;13.90;79.26;99212.23;104744;1257;139116;-63
2024/04/02 01:32:30;;;;;;;13.00;5.20;;;;;;;13.84;79.08;99211.79;109215;1254;66161;-64
2024/04/02 01:34:56;;;;;;;17.90;4.80;;;;;;;13.76;78.98;99221.40;109065;1253;138599;-64
2024/04/02 01:37:23;;;;;;;11.20;4.30;;;;;;;13.70;78.78;99222.71;109268;1254;59986;-64
2024/04/02 01:39:49;;;;;;;10.70;3.90;;;;;;;13.61;78.43;99228.98;109049;1254;60411;-64
2024/04/02 01:42:16;;;;;;;10.20;3.30;;;;;;;13.53;78.12;99230.66;107124;1253;145083;-64
2024/04/02 01:44:42;;;;;;;12.60;3.20;;;;;;;13.43;77.58;99234.48;104878;1257;66862;-64
2024/04/02 01:47:09;;;;;;;14.50;3.60;;;;;;;13.36;77.45;99241.61;104787;1254;138908;-64
2024/04/02 01:49:36;;;;;;;9.60;3.30;;;;;;;13.28;77.38;99244.30;104834;1253;62173;-63
2024/04/02 01:52:03;;;;;;;10.20;2.80;;;;;;;13.21;77.40;99248.77;105008;1257;62018;-64
2024/04/02 01:54:29;;;;;;;8.60;3.00;;;;;;;13.15;77.39;99251.12;105014;1254;145177;-65
2024/04/02 01:56:56;;;;;;;8.80;3.10;;;;;;;13.09;77.49;99253.46;105038;1257;65019;-64
2024/04/02 01:59:23;;;;;;;7.10;2.90;;;;;;;13.04;77.43;99258.27;104893;1258;139931;-65
2024/04/02 02:01:50;;;;;;;7.40;2.40;;;;;;;12.97;77.41;99253.39;105019;1254;62051;-63
2024/04/02 02:04:17;;;;;;;11.40;2.80;;;;;;;12.88;77.43;99251.90;105108;1257;61978;-64
2024/04/02 02:06:43;;;;;;;7.80;2.40;;;;;;;12.81;77.52;99257.40;104945;1254;138835;-65
2024/04/02 02:09:10;;;;;;;11.20;2.60;;;;;;;12.76;77.70;99256.20;105240;1254;65717;-65
2024/04/02 02:11:37;;;;;;;7.00;2.70;;;;;;;12.73;77.72;99253.25;104695;1254;139629;-66
2024/04/02 02:14:04;;;;;;;8.80;2.60;;;;;;;12.68;77.81;99259.44;104814;1258;62058;-67
2024/04/02 02:16:30;;;;;;;8.40;2.50;;;;;;;12.63;77.84;99256.13;104826;1257;62041;-67
2024/04/02 02:18:57;;;;;;;9.30;2.50;;;;;;;12.61;77.98;99259.14;104792;1254;138416;-67
2024/04/02 02:21:23;;;;;;;7.50;2.70;;;;;;;12.59;78.01;99260.02;104949;1254;62086;-67
2024/04/02 02:23:50;;;;;;;5.90;2.70;;;;;;;12.57;78.19;99267.09;104957;1254;139056;-67
2024/04/02 02:26:18;;;;;;;5.80;2.70;;;;;;;12.54;78.08;99265.19;105048;1254;62541;-67
2024/04/02 02:28:45;;;;;;;5.70;2.90;;;;;;;12.52;78.10;99260.95;105045;1257;60554;-66
2024/04/02 02:31:11;;;;;;;11.20;3.50;;;;;;;12.51;78.22;99264.66;104818;1254;138962;-66
2024/04/02 02:33:38;;;;;;;7.70;3.00;;;;;;;12.47;78.17;99262.04;105019;1254;65684;-66
2024/04/02 02:36:05;;;;;;;10.60;3.10;;;;;;;12.45;78.28;99262.41;104593;1257;139607;-66
2024/04/02 02:38:31;;;;;;;9.70;2.50;;;;;;;12.45;78.41;99261.89;105926;1254;62137;-66
2024/04/02 02:41:01;;;;;;;6.30;2.40;;;;;;;12.44;78.37;99259.95;104969;1257;139156;-67
2024/04/02 02:43:28;;;;;;;5.50;2.60;;;;;;;12.43;78.44;99264.01;104824;1254;76516;-66
2024/04/02 02:45:55;;;;;;;6.10;2.60;;;;;;;12.41;78.45;99267.55;104574;1255;66041;-66
2024/04/02 02:48:22;;;;;;;6.40;2.50;;;;;;;12.41;78.50;99267.02;108774;1253;138293;-66
2024/04/02 02:50:49;;;;;;;7.80;2.90;;;;;;;12.40;78.53;99269.13;108932;1254;59910;-66
2024/04/02 02:53:16;;;;;;;5.40;2.50;;;;;;;12.40;78.48;99269.30;109150;1253;139035;-67
2024/04/02 02:55:43;;;;;;;4.90;2.50;;;;;;;12.37;78.42;99269.33;109196;1253;74926;-66
2024/04/02 02:58:10;;;;;;;7.70;2.90;;;;;;;12.35;78.22;99271.80;109269;1253;64686;-66
2024/04/02 03:00:39;;;;;;;8.20;3.10;;;;;;;12.34;78.29;99263.37;109104;1253;138263;-66
2024/04/02 03:03:06;;;;;;;8.50;2.80;;;;;;;12.34;78.15;99263.19;108670;1254;60695;-66
2024/04/02 03:05:32;;;;;;;5.80;2.90;;;;;;;12.34;78.22;99262.65;104865;1253;138772;-67
2024/04/02 03:07:59;;;;;;;9.60;3.10;;;;;;;12.33;77.93;99263.55;104824;1254;76091;-68
2024/04/02 03:10:26;;;;;;;4.20;2.40;;;;;;;12.31;77.93;99260.73;104753;1257;66873;-68
2024/04/02 03:12:53;;;;;;;4.80;2.60;;;;;;;12.28;77.91;99261.98;104598;1259;138730;-65
2024/04/02 03:15:19;;;;;;;6.30;2.60;;;;;;;12.23;77.83;99263.24;104812;1254;62108;-65
2024/04/02 03:17:46;;;;;;;4.50;2.90;;;;;;;12.21;77.81;99264.31;105048;1254;138698;-65
2024/04/02 03:20:12;;;;;;;6.50;3.30;;;;;;;12.19;77.81;99270.48;105037;1254;76177;-65
2024/04/02 03:22:39;;;;;;;6.30;2.70;;;;;;;12.16;77.78;99264.86;105101;1254;62156;-65
2024/04/02 03:25:06;;;;;;;3.60;2.40;;;;;;;12.16;77.85;99264.88;104953;1254;139106;-64
2024/04/02 03:27:32;;;;;;;3.60;2.60;;;;;;;12.14;77.74;99263.13;104862;1254;62195;-65
2024/04/02 03:29:59;;;;;;;7.10;2.60;;;;;;;12.12;77.76;99266.48;104727;1254;137734;-64
2024/04/02 03:32:25;;;;;;;5.10;2.60;;;;;;;12.07;77.54;99263.16;104852;1254;76428;-67
2024/04/02 03:34:55;;;;;;;3.80;2.60;;;;;;;12.06;77.73;99264.92;104737;1254;137874;-67
2024/04/02 03:37:22;;;;;;;4.40;2.70;;;;;;;12.03;77.68;99263.52;109174;1253;71572;-67
2024/04/02 03:39:48;;;;;;;4.30;2.30;;;;;;;12.02;77.67;99262.13;109280;1254;59757;-67
2024/04/02 03:42:15;;;;;;;8.70;3.00;;;;;;;12.00;77.70;99263.20;109208;1253;138884;-64
2024/04/02 03:44:41;;;;;;;4.00;2.80;;;;;;;12.00;77.80;99265.13;106283;1253;75895;-64
2024/04/02 03:47:08;;;;;;;3.10;2.70;;;;;;;11.98;77.82;99268.13;105000;1254;138967;-64
2024/04/02 03:49:35;;;;;;;4.20;2.70;;;;;;;11.96;77.79;99270.95;105108;1254;72419;-66
2024/04/02 03:52:03;;;;;;;4.20;3.00;;;;;;;11.94;77.83;99275.35;104922;1254;60749;-65
2024/04/02 03:54:29;;;;;;;5.50;2.90;;;;;;;11.95;78.06;99275.34;104644;1254;138598;-66
2024/04/02 03:56:56;;;;;;;3.70;2.60;;;;;;;11.95;78.17;99277.10;104778;1254;75994;-65
2024/04/02 03:59:23;;;;;;;6.30;3.20;;;;;;;11.94;78.11;99279.92;104450;1259;138971;-65
2024/04/02 04:01:49;;;;;;;4.50;2.80;;;;;;;11.93;78.21;99281.69;104898;1254;71112;-65
2024/04/02 04:04:16;;;;;;;7.90;3.00;;;;;;;11.91;78.20;99283.45;104877;1254;62137;-65
2024/04/02 04:06:42;;;;;;;4.70;3.10;;;;;;;11.89;78.46;99279.74;104918;1254;141637;-62
2024/04/02 04:09:09;;;;;;;3.70;2.70;;;;;;;11.87;78.37;99277.64;104898;1254;62102;-63
2024/04/02 04:11:35;;;;;;;3.80;2.70;;;;;;;11.86;78.54;99279.22;104915;1258;139082;-64
2024/04/02 04:14:03;;;;;;;4.70;3.10;;;;;;;11.84;78.51;99280.63;105041;1254;73213;-63
2024/04/02 04:16:30;;;;;;;5.70;3.30;;;;;;;11.83;78.64;99283.98;105117;1254;62163;-64
2024/04/02 04:18:57;;;;;;;4.90;3.50;;;;;;;11.81;78.67;99282.58;104966;1253;138954;-65
2024/04/02 04:21:23;;;;;;;4.80;3.30;;;;;;;11.81;78.83;99283.11;104510;1253;62004;-65
2024/04/02 04:23:50;;;;;;;5.80;3.00;;;;;;;11.82;78.77;99280.99;104998;1254;138354;-64
2024/04/02 04:26:16;;;;;;;6.30;3.20;;;;;;;11.82;78.91;99284.33;104832;1257;73387;-64
2024/04/02 04:28:43;;;;;;;4.10;3.20;;;;;;;11.83;78.95;99280.81;104873;1257;62185;-64
2024/04/02 04:31:10;;;;;;;5.10;3.10;;;;;;;11.84;78.96;99285.02;104713;1254;138709;-64
2024/04/02 04:33:36;;;;;;;5.40;3.50;;;;;;;11.82;78.90;99288.02;104676;1254;76372;-64
2024/04/02 04:36:03;;;;;;;5.20;3.20;;;;;;;11.81;78.99;99287.48;104751;1254;138314;-64
2024/04/02 04:38:30;;;;;;;3.90;3.20;;;;;;;11.80;79.05;99284.68;104819;1254;74643;-64
2024/04/02 04:40:57;;;;;;;4.00;3.30;;;;;;;11.79;79.16;99278.55;104889;1257;139051;-65
2024/04/02 04:43:24;;;;;;;7.10;3.50;;;;;;;11.79;79.17;99276.61;105003;1254;62052;-65
2024/04/02 04:45:51;;;;;;;4.30;3.60;;;;;;;11.78;79.22;99279.06;104854;1254;249127;-64
2024/04/02 04:48:18;;;;;;;3.40;2.80;;;;;;;11.78;79.31;99276.60;104933;1254;138760;-65
2024/04/02 04:51:14;;;;;;;7.20;3.70;;;;;;;11.79;79.40;99275.02;105037;1253;73222;-65
2024/04/02 04:53:42;;;;;;;6.80;3.50;;;;;;;11.81;79.40;99270.98;104791;1254;138364;-65
2024/04/02 04:56:08;;;;;;;8.80;3.90;;;;;;;11.81;79.53;99271.33;105057;1254;61868;-63
2024/04/02 04:58:35;;;;;;;5.50;4.00;;;;;;;11.83;79.47;99268.69;104945;1254;74555;-64
2024/04/02 05:01:03;;;;;;;9.70;3.70;;;;;;;11.83;79.44;99273.44;104730;1256;138558;-65
2024/04/02 05:03:29;;;;;;;4.70;3.20;;;;;;;11.82;79.37;99279.92;104653;1254;74351;-65
2024/04/02 05:06:07;;;;;;;9.20;3.70;;;;;;;11.81;79.51;99276.26;105042;1258;138594;-64
2024/04/02 05:08:35;;;;;;;4.80;3.50;;;;;;;11.80;79.48;99273.61;105117;1254;62063;-65
2024/04/02 05:11:04;;;;;;;6.60;3.90;;;;;;;11.79;79.60;99267.46;109146;1253;139048;-65
2024/04/02 05:13:31;;;;;;;6.60;3.40;;;;;;;11.81;79.70;99270.10;109281;1254;67419;-65
2024/04/02 05:15:57;;;;;;;8.10;4.00;;;;;;;11.84;79.63;99274.11;109315;1254;70550;-66
2024/04/02 05:18:24;;;;;;;5.00;3.50;;;;;;;11.86;79.64;99278.69;108976;1253;139234;-66
2024/04/02 05:20:51;;;;;;;6.90;3.80;;;;;;;11.86;79.64;99277.28;108786;1254;60056;-66
2024/04/02 05:23:18;;;;;;;7.10;3.90;;;;;;;11.89;79.70;99281.85;105014;1258;139192;-64
2024/04/02 05:25:45;;;;;;;4.70;3.30;;;;;;;11.92;79.60;99288.19;105045;1257;67166;-66
2024/04/02 05:28:12;;;;;;;5.80;4.40;;;;;;;11.95;79.68;99292.05;109219;1254;73495;-65
2024/04/02 05:30:38;;;;;;;5.00;3.70;;;;;;;11.97;79.60;99292.39;109131;1254;139561;-64
2024/04/02 05:33:05;;;;;;;6.90;3.60;;;;;;;11.97;79.43;99296.08;109244;1253;59941;-64
2024/04/02 05:35:33;;;;;;;4.20;3.40;;;;;;;11.97;79.32;99298.71;109156;1253;139391;-65
2024/04/02 05:37:59;;;;;;;7.00;3.60;;;;;;;11.98;79.11;99306.80;109293;1254;67690;-65
2024/04/02 05:40:26;;;;;;;4.40;3.10;;;;;;;11.98;78.93;99305.22;109326;1253;71839;-65
2024/04/02 05:42:52;;;;;;;4.70;3.50;;;;;;;11.96;78.71;99311.38;109018;1254;140036;-66
2024/04/02 05:45:19;;;;;;;4.40;3.00;;;;;;;11.97;78.71;99313.83;109305;1254;60442;-65
2024/04/02 05:47:46;;;;;;;3.70;3.20;;;;;;;11.99;78.67;99317.88;109116;1253;138688;-66
2024/04/02 05:50:15;;;;;;;6.50;2.80;;;;;;;12.00;78.54;99318.75;109094;1259;66380;-62
2024/04/02 05:52:41;;;;;;;3.40;2.70;;;;;;;12.02;78.51;99317.34;109311;1253;73146;-66
2024/04/02 05:55:08;;;;;;;5.30;3.10;;;;;;;12.04;78.35;99318.38;109181;1254;137896;-64
2024/04/02 05:57:35;;;;;;;6.70;4.30;;;;;;;12.06;78.19;99313.98;109265;1254;60082;-65
2024/04/02 06:00:05;;;;;;;7.40;4.70;;;;;;;12.09;78.08;99313.42;109012;1254;138461;-66
2024/04/02 06:02:32;;;;;;;4.20;3.20;;;;;;;12.11;78.05;99313.08;107082;1254;63822;-65
2024/04/02 06:04:59;;;;;;;6.00;4.10;;;;;;;12.14;77.98;99314.64;109178;1253;138374;-66
2024/04/02 06:07:25;;;;;;;7.60;5.10;;;;;;;12.20;77.99;99313.92;105181;1254;62096;-65
2024/04/02 06:09:52;;;;;;;5.00;3.80;;;;;;;12.25;77.78;99313.90;105097;1254;62157;-65
2024/04/02 06:12:18;;;;;;;8.70;6.90;;;;;;;12.28;77.36;99315.99;104801;1254;138528;-66
2024/04/02 06:14:45;;;;;;;13.20;7.20;;;;;;;12.26;77.23;99314.77;105272;1254;65371;-66
2024/04/02 06:17:11;;;;;;;6.50;3.40;;;;;;;12.30;77.23;99313.34;105038;1259;139695;-66
2024/04/02 06:19:38;;;;;;;8.20;5.60;;;;;;;12.34;76.93;99311.75;105183;1254;62157;-65
2024/04/02 06:22:05;;;;;;;6.30;3.90;;;;;;;12.37;76.52;99312.41;105182;1258;62048;-65
2024/04/02 06:24:32;;;;;;;4.50;3.30;;;;;;;12.40;76.09;99310.47;104861;1256;138373;-66
2024/04/02 06:26:58;;;;;;;5.00;2.80;;;;;;;12.43;76.07;99309.40;105090;1258;66760;-66
2024/04/02 06:29:26;;;;;;;3.60;2.50;;;;;;;12.46;75.68;99307.45;105023;1254;138531;-66
2024/04/02 06:31:53;;;;;;;3.10;2.40;;;;;;;12.43;75.23;99301.48;109276;1254;59826;-66
2024/04/02 06:34:21;;;;;;;5.60;3.20;;;;;;;12.44;75.00;99305.52;109104;1254;59697;-64
2024/04/02 06:36:47;;;;;;;4.40;3.30;;;;;;;12.48;74.85;99303.20;109105;1256;138562;-66
2024/04/02 06:39:14;;;;;;;2.90;2.40;;;;;;;12.55;74.76;99302.29;109210;1256;65481;-67
2024/04/02 06:41:40;;;;;;;5.00;3.40;;;;;;;12.66;74.58;99303.80;108957;1254;139062;-65
2024/04/02 06:44:07;;;;;;;8.10;5.80;;;;;;;12.75;74.43;99303.74;109232;1254;65590;-66
2024/04/02 06:46:33;;;;;;;5.00;3.70;;;;;;;12.82;74.19;99299.80;109199;1256;61488;-65
2024/04/02 06:49:00;;;;;;;5.10;3.30;;;;;;;12.87;74.03;99301.54;109097;1255;138825;-68
2024/04/02 06:51:27;;;;;;;6.00;4.90;;;;;;;12.91;73.79;99303.98;109137;1254;66739;-67
2024/04/02 06:53:53;;;;;;;4.40;4.00;;;;;;;12.97;73.82;99307.27;108981;1255;137874;-68
2024/04/02 06:56:20;;;;;;;4.40;3.60;;;;;;;13.07;73.79;99310.37;109138;1254;59985;-67
2024/04/02 06:58:47;;;;;;;6.10;5.20;;;;;;;13.17;73.72;99303.94;109214;1256;60747;-66
2024/04/02 07:01:14;;;;;;;8.50;5.10;;;;;;;13.28;73.42;99303.15;109028;1254;138014;-65
2024/04/02 07:03:40;;;;;;;25.90;21.50;;;;;;;13.36;73.31;99298.68;109208;1254;66815;-66
2024/04/02 07:06:07;;;;;;;13.60;11.00;;;;;;;13.47;73.05;99297.70;109099;1254;138593;-66
2024/04/02 07:08:34;;;;;;;21.60;14.70;;;;;;;13.57;72.77;99294.07;109228;1255;60084;-67
2024/04/02 07:11:04;;;;;;;38.00;27.20;;;;;;;13.64;72.63;99290.99;109070;1255;138989;-65
2024/04/02 07:13:31;;;;;;;18.30;16.40;;;;;;;13.72;72.33;99286.50;109196;1254;75521;-66
2024/04/02 07:15:58;;;;;;;6.50;5.40;;;;;;;13.79;72.06;99280.08;108487;1257;67074;-65
2024/04/02 07:18:25;;;;;;;4.10;3.40;;;;;;;13.86;71.83;99277.35;104859;1257;138385;-65
2024/04/02 07:20:59;;;;;;;5.10;4.00;;;;;;;13.94;71.60;99275.50;105103;1256;62176;-65
2024/04/02 07:23:26;;;;;;;6.20;4.20;;;;;;;13.97;71.12;99272.27;104969;1257;137972;-65
2024/04/02 07:25:52;;;;;;;3.20;2.90;;;;;;;14.00;70.87;99274.70;105056;1259;74859;-65
2024/04/02 07:28:22;;;;;;;3.40;3.00;;;;;;;14.10;70.96;99278.98;105034;1260;66998;-65
2024/04/02 07:30:49;;;;;;;5.10;2.50;;;;;;;14.23;70.75;99286.59;104939;1258;138346;-66
2024/04/02 07:33:16;;;;;;;2.40;2.20;;;;;;;14.31;70.37;99283.29;105053;1263;62053;-66
2024/04/02 07:35:43;;;;;;;2.70;2.30;;;;;;;14.42;70.16;99290.21;105018;1259;137821;-66
2024/04/02 07:38:10;;;;;;;3.60;2.10;;;;;;;14.60;70.07;99296.86;105053;1259;75176;-66
2024/04/02 07:40:37;;;;;;;3.30;2.40;;;;;;;14.74;69.83;99295.77;109285;1253;65987;-66
2024/04/02 07:43:06;;;;;;;2.40;2.00;;;;;;;14.82;69.46;99299.88;109185;1253;138144;-67
2024/04/02 07:45:33;;;;;;;3.10;2.20;;;;;;;14.97;69.42;99304.77;107146;1259;62074;-67
2024/04/02 07:48:00;;;;;;;5.40;2.10;;;;;;;15.13;69.24;99306.99;104817;1254;137860;-66
2024/04/02 07:50:31;;;;;;;3.30;2.40;;;;;;;15.26;68.78;99305.89;105078;1254;76004;-66
2024/04/02 07:52:58;;;;;;;3.10;2.10;;;;;;;15.29;68.34;99307.97;109177;1253;138069;-67
2024/04/02 07:55:25;;;;;;;2.70;2.30;;;;;;;15.30;68.04;99311.99;109115;1253;71583;-66
2024/04/02 07:57:51;;;;;;;4.00;2.40;;;;;;;15.34;67.94;99315.11;109095;1254;59912;-67
2024/04/02 08:00:18;;;;;;;2.80;2.20;;;;;;;15.36;67.73;99318.95;108955;1254;138367;-65
2024/04/02 08:02:46;;;;;;;5.40;2.70;;;;;;;15.35;67.35;99322.87;109294;1253;75540;-66
2024/04/02 08:05:13;;;;;;;3.70;3.20;;;;;;;15.30;66.71;99327.21;109211;1254;138684;-66
2024/04/02 08:07:49;;;;;;;4.20;2.80;;;;;;;15.25;66.55;99328.33;109081;1254;73264;-67
2024/04/02 08:10:16;;;;;;;2.80;2.50;;;;;;;15.26;66.40;99335.76;107462;1254;62208;-66
2024/04/02 08:12:42;;;;;;;5.00;2.40;;;;;;;15.25;66.29;99331.70;104874;1254;138043;-65
2024/04/02 08:15:09;;;;;;;7.20;2.40;;;;;;;15.17;65.98;99336.61;105198;1257;76608;-65
2024/04/02 08:17:35;;;;;;;4.00;2.90;;;;;;;15.04;65.68;99336.30;105136;1259;137754;-65
2024/04/02 08:20:06;;;;;;;5.00;3.00;;;;;;;14.86;65.54;99335.50;104975;1259;74111;-69
2024/04/02 08:22:33;;;;;;;5.00;4.20;;;;;;;14.70;65.59;99336.80;109273;1254;59740;-66
2024/04/02 08:24:59;;;;;;;5.40;2.70;;;;;;;14.60;65.59;99332.17;109169;1253;138100;-68
2024/04/02 08:27:26;;;;;;;2.70;2.00;;;;;;;14.55;65.57;99335.73;109084;1254;75780;-69
2024/04/02 08:29:52;;;;;;;2.30;1.80;;;;;;;14.56;65.72;99338.05;109011;1254;138118;-67
2024/04/02 08:32:22;;;;;;;3.30;2.40;;;;;;;14.61;65.53;99334.98;109306;1253;72828;-66
2024/04/02 08:34:49;;;;;;;3.80;2.60;;;;;;;14.60;65.22;99331.65;109284;1254;59927;-66
2024/04/02 08:37:15;;;;;;;4.30;2.60;;;;;;;14.59;65.11;99334.65;109320;1254;59878;-67
2024/04/02 08:39:42;;;;;;;3.40;2.30;;;;;;;14.61;64.97;99337.46;109287;1254;75704;-65
2024/04/02 08:42:08;;;;;;;3.50;2.20;;;;;;;14.65;64.96;99334.41;109063;1257;138543;-65
2024/04/02 08:44:38;;;;;;;3.30;2.70;;;;;;;14.69;64.71;99334.34;109338;1253;72710;-65
2024/04/02 08:47:05;;;;;;;3.40;2.40;;;;;;;14.69;64.62;99330.11;109201;1253;138070;-65
2024/04/02 08:49:32;;;;;;;5.80;3.10;;;;;;;14.69;64.67;99332.23;108906;1254;61760;-65
2024/04/02 08:52:02;;;;;;;5.70;2.50;;;;;;;14.65;64.43;99327.86;109054;1254;75479;-66
2024/04/02 08:54:30;;;;;;;3.60;2.00;;;;;;;14.63;64.61;99325.95;109139;1254;138208;-68
2024/04/02 08:56:57;;;;;;;3.20;2.10;;;;;;;14.66;64.43;99331.56;109258;1254;73544;-68
2024/04/02 08:59:26;;;;;;;4.80;3.70;;;;;;;14.66;64.24;99333.15;108961;1254;138114;-67
2024/04/02 09:01:55;;;;;;;5.30;2.80;;;;;;;14.82;64.35;99334.15;108991;1254;61227;-68
2024/04/02 09:04:24;;;;;;;4.50;2.40;;;;;;;15.12;64.57;99337.57;109084;1254;75350;-67
2024/04/02 09:06:51;;;;;;;6.00;2.50;;;;;;;15.40;64.24;99335.34;109201;1254;138787;-68
2024/04/02 09:09:21;;;;;;;4.30;2.40;;;;;;;15.58;63.96;99336.45;109264;1253;71664;-68
2024/04/02 09:11:50;;;;;;;2.90;2.40;;;;;;;15.62;63.59;99337.24;109177;1254;137951;-67
2024/04/02 09:14:17;;;;;;;4.70;2.40;;;;;;;15.59;63.20;99341.20;109326;1254;60060;-68
2024/04/02 09:16:44;;;;;;;4.00;2.10;;;;;;;15.50;63.15;99340.45;109294;1254;76141;-67
2024/04/02 09:19:10;;;;;;;2.70;2.30;;;;;;;15.45;62.82;99346.55;109189;1253;137945;-67
2024/04/02 09:21:37;;;;;;;5.60;2.50;;;;;;;15.43;62.67;99345.89;108971;1254;71474;-67
2024/04/02 09:24:04;;;;;;;5.60;2.90;;;;;;;15.54;62.72;99351.89;105031;1254;137675;-67
2024/04/02 09:26:31;;;;;;;4.40;2.70;;;;;;;15.79;62.54;99350.05;109091;1254;59902;-67
2024/04/02 09:28:57;;;;;;;6.00;2.20;;;;;;;15.93;62.19;99353.85;109145;1254;137871;-68
2024/04/02 09:31:26;;;;;;;3.60;2.50;;;;;;;15.94;62.02;99355.25;109323;1253;67020;-68
2024/04/02 09:33:53;;;;;;;4.20;2.70;;;;;;;15.87;61.78;99356.10;109323;1253;70303;-68
2024/04/02 09:36:31;;;;;;;4.60;2.90;;;;;;;15.72;61.61;99355.63;109176;1254;137757;-68
2024/04/02 09:38:57;;;;;;;4.80;3.00;;;;;;;15.60;61.71;99360.98;109122;1257;60342;-67
2024/04/02 09:41:26;;;;;;;5.90;2.90;;;;;;;15.64;61.92;99362.31;109004;1254;138413;-66
2024/04/02 09:43:52;;;;;;;4.90;2.50;;;;;;;15.80;61.89;99362.77;109003;1253;66844;-67
2024/04/02 09:46:20;;;;;;;3.50;2.70;;;;;;;15.91;61.70;99360.25;109110;1254;71187;-66
2024/04/02 09:48:46;;;;;;;3.40;2.80;;;;;;;15.94;61.28;99361.61;109029;1254;137867;-67
2024/04/02 09:51:13;;;;;;;4.00;2.50;;;;;;;15.86;60.97;99364.60;109293;1253;59989;-67
2024/04/02 09:53:39;;;;;;;3.30;2.40;;;;;;;15.70;60.62;99366.10;109034;1254;138006;-67
2024/04/02 09:56:06;;;;;;;5.30;2.60;;;;;;;15.52;60.37;99368.55;106182;1259;66918;-65
2024/04/02 09:58:33;;;;;;;6.40;2.70;;;;;;;15.37;60.30;99372.51;105108;1258;73174;-66
2024/04/02 10:00:59;;;;;;;3.40;2.30;;;;;;;15.21;60.40;99374.54;104850;1259;137818;-66
2024/04/02 10:03:28;;;;;;;5.40;3.10;;;;;;;15.10;60.64;99376.12;105185;1258;62112;-65
2024/04/02 10:06:02;;;;;;;3.20;2.20;;;;;;;15.05;60.57;99379.03;109251;1254;137846;-66
2024/04/02 10:08:30;;;;;;;;;;;;;;;15.03;60.59;99380.98;109335;1254;66283;-66
2024/04/02 10:10:56;;;;;;;3.80;2.60;;;;;;;15.08;60.46;99377.91;108942;1254;124465;-65
2024/04/02 10:13:36;;;;;;;4.70;2.40;;;;;;;15.08;60.40;99382.16;109043;1254;60193;-66
2024/04/02 10:16:06;;;;;;;4.50;2.90;;;;;;;15.12;60.27;99379.44;109312;1254;59769;-66
2024/04/02 10:18:33;;;;;;;3.80;2.00;;;;;;;15.26;60.26;99382.41;109150;1253;138150;-66
2024/04/02 10:21:00;;;;;;;4.00;2.80;;;;;;;15.41;60.04;99382.34;109273;1254;64916;-66
2024/04/02 10:23:27;;;;;;;5.60;2.00;;;;;;;15.39;59.49;99382.02;109162;1253;137802;-67
2024/04/02 10:25:54;;;;;;;3.70;1.90;;;;;;;15.23;59.20;99388.64;109293;1253;59984;-66
2024/04/02 10:28:27;;;;;;;5.80;1.90;;;;;;;15.05;59.05;99387.48;109002;1254;59925;-66
2024/04/02 10:30:53;;;;;;;3.00;2.00;;;;;;;14.88;59.12;99390.57;109232;1254;137624;-65
2024/04/02 10:33:21;;;;;;;3.10;1.80;;;;;;;14.81;59.23;99397.39;109328;1254;65053;-66
2024/04/02 10:35:47;;;;;;;5.00;2.40;;;;;;;14.76;59.37;99399.93;108987;1254;138034;-65
2024/04/02 10:38:14;;;;;;;3.10;1.80;;;;;;;14.65;58.84;99399.73;109078;1253;59791;-66
2024/04/02 10:40:41;;;;;;;2.70;2.00;;;;;;;14.52;58.96;99398.27;109318;1254;60423;-67
2024/04/02 10:43:07;;;;;;;3.00;2.00;;;;;;;14.50;59.10;99399.36;109149;1254;137430;-66
2024/04/02 10:45:34;;;;;;;7.20;4.70;;;;;;;14.66;58.98;99400.41;109093;1254;66372;-66
2024/04/02 10:48:01;;;;;;;9.40;6.10;;;;;;;14.87;58.51;99405.59;108926;1254;137738;-67
2024/04/02 10:50:29;;;;;;;7.00;4.50;;;;;;;14.99;58.70;99401.71;109327;1253;59921;-67
2024/04/02 10:52:55;;;;;;;5.10;2.30;;;;;;;15.25;58.92;99403.27;108983;1255;138290;-66
2024/04/02 10:55:23;;;;;;;4.00;2.10;;;;;;;15.57;58.78;99401.16;109322;1254;76711;-66
2024/04/02 10:57:50;;;;;;;4.40;2.80;;;;;;;15.80;58.58;99396.35;109075;1254;66319;-66
2024/04/02 11:00:16;;;;;;;3.70;2.30;;;;;;;16.06;58.50;99398.39;109168;1254;137865;-67
2024/04/02 11:02:44;;;;;;;3.20;2.40;;;;;;;16.33;58.26;99399.80;109080;1254;59894;-68
2024/04/02 11:05:14;;;;;;;6.80;2.70;;;;;;;16.55;57.85;99396.52;108645;1254;138800;-66
2024/04/02 11:07:42;;;;;;;3.40;2.20;;;;;;;16.84;57.88;99398.04;109053;1254;75359;-66
2024/04/02 11:10:09;;;;;;;3.50;2.20;;;;;;;17.04;57.38;99401.48;109046;1254;66367;-65
2024/04/02 11:12:35;;;;;;;3.90;2.30;;;;;;;17.14;56.88;99402.86;108958;1254;138737;-66
2024/04/02 11:15:02;;;;;;;5.10;2.30;;;;;;;17.12;56.59;99410.52;109333;1259;60110;-66
2024/04/02 11:17:29;;;;;;;5.10;2.20;;;;;;;16.97;56.19;99420.25;109000;1254;137988;-66
2024/04/02 11:19:56;;;;;;;3.50;2.20;;;;;;;16.85;56.36;99423.70;107980;1254;75495;-65
2024/04/02 11:25:08;;;;;;;3.00;2.00;;;;;;;16.80;55.92;99417.22;105007;1256;138466;-65